Time;durP1;ratioP1;P1;durP2;ratioP2;P2;SDS_P1;SDS_P2;PMS_P1;PMS_P2;Temp;Humidity;BMP_temperature;BMP_pressure;BME280_temperature;BME280_humidity;BME280_pressure;Samples;Min_cycle;Max_cycle;Signal;HPM_P1;HPM_P2
2022/01/28 00:00:30;;;;;;;12.27;7.72;;;3.10;99.90;;;;;;5079527;28;20059;-70
2022/01/28 00:05:23;;;;;;;10.60;7.35;;;2.90;99.90;;;;;;5074258;28;20516;-69
2022/01/28 00:07:50;;;;;;;11.18;7.93;;;2.90;99.90;;;;;;5084152;28;20487;-70
2022/01/28 00:10:17;;;;;;;11.70;7.47;;;2.90;99.90;;;;;;5074534;28;20035;-70
2022/01/28 00:15:40;;;;;;;13.13;7.20;;;3.00;99.90;;;;;;5075445;28;20080;-69
2022/01/28 00:39:25;;;;;;;9.15;5.90;;;3.20;99.90;;;;;;5067300;28;20020;-70
2022/01/28 00:41:51;;;;;;;10.15;6.65;;;3.40;99.90;;;;;;5069207;28;20044;-70
2022/01/28 00:44:17;;;;;;;10.60;6.72;;;3.30;99.90;;;;;;5068966;28;20024;-70
2022/01/28 00:46:43;;;;;;;10.38;6.15;;;3.30;99.90;;;;;;5069777;28;20038;-70
2022/01/28 00:49:08;;;;;;;10.35;6.40;;;3.30;99.90;;;;;;5068692;28;20033;-70
2022/01/28 00:51:34;;;;;;;9.45;6.28;;;3.30;99.90;;;;;;5070007;28;20068;-71
2022/01/28 00:54:00;;;;;;;9.98;5.13;;;3.30;99.90;;;;;;5069363;28;20024;-71
2022/01/28 00:56:26;;;;;;;11.25;5.72;;;3.30;99.90;;;;;;5069223;28;20060;-70
2022/01/28 00:58:51;;;;;;;13.30;6.38;;;3.30;99.90;;;;;;5070040;28;20533;-70
2022/01/28 01:01:17;;;;;;;8.20;5.38;;;3.30;99.90;;;;;;5068737;28;20032;-70
2022/01/28 01:03:43;;;;;;;10.65;5.65;;;3.40;99.90;;;;;;5070025;28;20032;-70
2022/01/28 01:06:08;;;;;;;9.38;5.53;;;3.30;99.90;;;;;;5066305;28;20059;-71
2022/01/28 01:08:34;;;;;;;10.05;5.78;;;3.40;99.90;;;;;;5068667;28;20033;-70
2022/01/28 01:10:59;;;;;;;8.20;5.45;;;3.40;99.90;;;;;;5066714;28;20040;-70
2022/01/28 01:13:25;;;;;;;10.45;5.80;;;3.40;99.90;;;;;;5069173;28;20024;-70
2022/01/28 01:15:56;;;;;;;10.80;5.45;;;3.30;99.90;;;;;;5070358;28;20044;-70
2022/01/28 01:18:28;;;;;;;7.90;4.97;;;3.30;99.90;;;;;;5070386;28;20062;-70
2022/01/28 01:21:03;;;;;;;12.90;5.10;;;3.20;99.90;;;;;;5075745;28;20047;-70
2022/01/28 01:23:33;;;;;;;6.97;5.13;;;3.20;99.90;;;;;;5071000;28;20021;-70
2022/01/28 01:28:32;;;;;;;7.00;5.30;;;3.10;99.90;;;;;;5068433;28;20028;-70
2022/01/28 01:31:00;;;;;;;7.57;5.53;;;3.10;99.90;;;;;;5073118;28;20040;-70
2022/01/28 01:33:27;;;;;;;10.48;5.60;;;3.10;99.90;;;;;;5070654;28;20024;-70
2022/01/28 01:35:53;;;;;;;8.68;5.60;;;3.10;99.90;;;;;;5073711;28;20020;-70
2022/01/28 01:38:24;;;;;;;8.88;5.85;;;3.20;99.90;;;;;;5069886;28;20133;-70
2022/01/28 01:40:56;;;;;;;8.48;5.63;;;3.10;99.90;;;;;;5071528;28;20040;-70
2022/01/28 01:54:14;;;;;;;9.00;5.50;;;2.80;99.90;;;;;;5071116;28;20054;-70
2022/01/28 01:56:40;;;;;;;12.90;6.13;;;2.70;99.90;;;;;;5070617;28;20503;-70
2022/01/28 01:59:08;;;;;;;10.70;6.55;;;2.70;99.90;;;;;;5072761;28;20024;-70
2022/01/28 02:01:34;;;;;;;8.60;5.60;;;2.60;99.90;;;;;;5072601;28;20490;-70
2022/01/28 02:03:59;;;;;;;9.88;5.50;;;2.50;99.90;;;;;;5072933;28;20435;-70
2022/01/28 02:06:26;;;;;;;8.85;5.85;;;2.40;99.90;;;;;;5065250;28;20031;-70
2022/01/28 02:08:52;;;;;;;9.35;5.28;;;2.40;99.90;;;;;;5071367;28;20385;-70
2022/01/28 02:11:17;;;;;;;9.48;5.72;;;2.40;99.90;;;;;;5073527;28;20032;-70
2022/01/28 02:13:48;;;;;;;9.98;5.57;;;2.40;99.90;;;;;;5079273;28;20024;-70
2022/01/28 02:16:15;;;;;;;11.68;6.22;;;2.30;99.90;;;;;;5081528;28;20020;-70
2022/01/28 02:18:41;;;;;;;10.52;6.32;;;2.30;99.90;;;;;;5088312;28;20396;-70
2022/01/28 02:21:10;;;;;;;11.63;6.55;;;2.30;99.90;;;;;;5072173;28;20033;-68
2022/01/28 02:23:37;;;;;;;9.13;5.72;;;2.20;99.90;;;;;;5087215;28;20016;-71
2022/01/28 02:26:04;;;;;;;10.35;5.88;;;2.20;99.90;;;;;;5082717;28;20032;-71
2022/01/28 02:28:34;;;;;;;8.80;5.43;;;2.20;99.90;;;;;;5077730;28;20088;-69
2022/01/28 02:31:02;;;;;;;12.02;5.97;;;2.10;99.90;;;;;;5089918;28;20434;-70
2022/01/28 02:33:28;;;;;;;9.63;5.93;;;2.00;99.90;;;;;;5073771;28;20024;-68
2022/01/28 02:35:54;;;;;;;12.23;6.80;;;1.90;99.90;;;;;;5069220;28;20510;-68
2022/01/28 02:38:22;;;;;;;9.18;5.78;;;1.80;99.90;;;;;;5082886;28;20024;-70
2022/01/28 02:40:54;;;;;;;10.48;5.85;;;1.70;99.90;;;;;;5077096;28;20497;-70
2022/01/28 02:45:51;;;;;;;12.00;6.65;;;1.60;99.90;;;;;;5084558;28;20378;-69
2022/01/28 02:48:20;;;;;;;10.00;6.07;;;1.60;99.90;;;;;;5074221;28;20468;-68
2022/01/28 02:51:01;;;;;;;10.98;6.68;;;1.70;99.90;;;;;;5076700;28;20032;-68
2022/01/28 02:53:37;;;;;;;12.90;6.05;;;1.70;99.90;;;;;;5060918;28;20032;-68
2022/01/28 02:56:12;;;;;;;9.82;5.72;;;1.70;99.90;;;;;;5082466;28;20472;-68
2022/01/28 02:58:37;;;;;;;8.60;5.90;;;1.70;99.90;;;;;;5083309;28;20126;-68
2022/01/28 03:01:03;;;;;;;9.50;6.30;;;1.60;99.90;;;;;;5074938;28;20115;-71
2022/01/28 03:03:29;;;;;;;15.95;7.22;;;1.50;99.90;;;;;;5066437;28;20962;-70
2022/01/28 03:05:55;;;;;;;13.93;6.43;;;1.60;99.90;;;;;;5084795;28;20052;-70
2022/01/28 03:08:24;;;;;;;12.95;6.97;;;1.60;99.90;;;;;;5083005;28;20113;-70
2022/01/28 03:16:16;;;;;;;10.55;6.20;;;1.70;99.90;;;;;;5070868;28;20461;-70
2022/01/28 03:21:25;;;;;;;13.35;5.03;;;1.90;99.90;;;;;;5072364;28;20115;-70
2022/01/28 03:23:51;;;;;;;9.43;5.65;;;2.00;99.90;;;;;;5079478;28;20111;-68
2022/01/28 03:26:17;;;;;;;10.75;5.50;;;1.90;99.90;;;;;;5079303;28;20032;-68
2022/01/28 03:28:43;;;;;;;10.50;4.90;;;2.00;99.90;;;;;;5086201;28;20052;-69
2022/01/28 03:31:09;;;;;;;9.88;5.82;;;2.00;99.90;;;;;;5074095;28;20070;-69
2022/01/28 03:33:35;;;;;;;8.27;5.05;;;2.10;99.90;;;;;;5084962;28;20032;-68
2022/01/28 03:36:04;;;;;;;11.88;5.32;;;2.20;99.90;;;;;;5080425;28;20361;-68
2022/01/28 03:38:30;;;;;;;8.25;5.50;;;2.20;99.90;;;;;;5077226;28;20032;-69
2022/01/28 03:40:56;;;;;;;12.57;4.80;;;2.20;99.90;;;;;;5087935;28;20036;-69
2022/01/28 03:43:23;;;;;;;8.48;5.28;;;2.30;99.90;;;;;;5057029;28;20032;-68
2022/01/28 03:45:48;;;;;;;10.38;5.03;;;2.40;99.90;;;;;;5078892;28;20073;-69
2022/01/28 03:48:14;;;;;;;8.57;5.50;;;2.40;99.90;;;;;;5079512;28;20067;-69
2022/01/28 03:50:40;;;;;;;11.20;5.95;;;2.60;99.90;;;;;;5086059;28;20024;-69
2022/01/28 03:53:08;;;;;;;10.15;5.20;;;2.60;99.90;;;;;;5073886;28;20094;-69
2022/01/28 03:55:34;;;;;;;10.23;5.75;;;2.70;99.90;;;;;;5085771;28;20056;-68
2022/01/28 03:58:00;;;;;;;10.02;5.90;;;2.60;99.90;;;;;;5072164;28;20150;-68
2022/01/28 04:00:29;;;;;;;10.70;6.20;;;2.70;99.90;;;;;;5083912;28;20036;-69
2022/01/28 04:03:37;;;;;;;11.95;6.68;;;2.70;99.90;;;;;;5072722;28;20021;-68
2022/01/28 04:13:52;;;;;;;12.65;6.05;;;2.90;99.90;;;;;;5084062;28;20109;-68
2022/01/28 04:18:50;;;;;;;11.70;6.10;;;2.80;99.90;;;;;;5075418;28;20025;-69
2022/01/28 04:21:15;;;;;;;12.27;6.30;;;2.80;99.90;;;;;;5075084;28;20419;-69
2022/01/28 04:23:42;;;;;;;9.82;6.22;;;2.80;99.90;;;;;;5084421;28;20031;-68
2022/01/28 04:26:07;;;;;;;10.55;6.20;;;2.80;99.90;;;;;;5079623;28;20043;-69
2022/01/28 04:28:33;;;;;;;9.55;5.65;;;2.70;99.90;;;;;;5076581;28;20052;-69
2022/01/28 04:30:58;;;;;;;10.30;5.45;;;2.60;99.90;;;;;;5087277;28;20028;-69
2022/01/28 04:33:24;;;;;;;11.40;5.65;;;2.60;99.90;;;;;;5074882;28;20035;-68
2022/01/28 04:35:53;;;;;;;13.15;6.03;;;2.60;99.90;;;;;;5083303;28;20116;-69
2022/01/28 04:41:03;;;;;;;9.57;5.25;;;2.60;99.90;;;;;;5074413;28;20029;-68
2022/01/28 04:43:36;;;;;;;13.60;6.65;;;2.50;99.90;;;;;;5060497;28;20020;-68
2022/01/28 04:46:26;;;;;;;12.07;6.50;;;2.40;99.90;;;;;;5081551;28;20434;-69
2022/01/28 04:49:46;;;;;;;;;;;2.30;99.90;;;;;;5087927;28;20392;-69
2022/01/28 04:56:46;;;;;;;8.75;5.82;;;2.20;99.90;;;;;;5084621;28;20039;-69
2022/01/28 05:10:20;;;;;;;14.13;5.80;;;2.30;99.90;;;;;;5076850;28;20056;-68
2022/01/28 05:15:26;;;;;;;16.05;7.35;;;2.20;99.90;;;;;;5077092;28;20036;-69
2022/01/28 05:23:31;;;;;;;13.93;6.72;;;2.10;99.90;;;;;;5060920;28;20050;-69
2022/01/28 05:28:39;;;;;;;15.25;6.40;;;2.20;99.90;;;;;;5075711;28;20053;-68
2022/01/28 05:31:05;;;;;;;15.13;6.95;;;2.30;99.90;;;;;;5078956;28;20134;-68
2022/01/28 05:33:30;;;;;;;12.52;6.60;;;2.20;99.90;;;;;;5088433;28;20029;-69
2022/01/28 05:35:56;;;;;;;13.98;6.93;;;2.20;99.90;;;;;;5082581;28;20043;-69
2022/01/28 05:38:21;;;;;;;12.73;7.72;;;2.10;99.90;;;;;;5081383;28;20031;-69
2022/01/28 05:40:47;;;;;;;14.27;7.20;;;2.10;99.90;;;;;;5090288;28;20035;-68
2022/01/28 05:43:13;;;;;;;13.90;7.20;;;2.00;99.90;;;;;;5061208;28;20473;-68
2022/01/28 05:45:40;;;;;;;13.05;7.28;;;2.00;99.90;;;;;;5078514;28;20445;-68
2022/01/28 05:48:06;;;;;;;13.45;8.02;;;1.90;99.90;;;;;;5074679;28;20029;-69
2022/01/28 05:50:31;;;;;;;11.82;6.80;;;2.00;99.90;;;;;;5079697;28;20035;-68
2022/01/28 05:52:57;;;;;;;13.57;7.55;;;2.00;99.90;;;;;;5090702;28;20116;-68
2022/01/28 05:55:24;;;;;;;16.42;7.70;;;2.00;99.90;;;;;;5077269;28;20427;-68
2022/01/28 05:57:50;;;;;;;12.77;6.68;;;2.00;99.90;;;;;;5084584;28;20082;-68
2022/01/28 06:00:17;;;;;;;16.80;7.43;;;2.00;99.90;;;;;;5074857;28;20396;-68
2022/01/28 06:02:44;;;;;;;14.00;8.25;;;2.00;99.90;;;;;;5085610;28;20032;-68
2022/01/28 06:05:09;;;;;;;13.07;6.85;;;1.90;99.90;;;;;;5070734;28;20036;-68
2022/01/28 06:07:41;;;;;;;14.50;7.18;;;2.00;99.90;;;;;;5087364;28;20025;-68
2022/01/28 06:10:10;;;;;;;13.77;7.78;;;1.90;99.90;;;;;;5083724;28;20059;-68
2022/01/28 06:12:44;;;;;;;13.02;7.20;;;1.90;99.90;;;;;;5078754;28;20089;-69
2022/01/28 06:15:11;;;;;;;14.52;6.75;;;1.90;99.90;;;;;;5070236;28;20041;-69
2022/01/28 06:17:37;;;;;;;14.80;7.80;;;1.90;99.90;;;;;;5078847;28;20461;-69
2022/01/28 06:20:05;;;;;;;18.92;7.82;;;1.80;99.90;;;;;;5076282;28;20349;-69
2022/01/28 06:22:31;;;;;;;19.02;7.90;;;1.80;99.90;;;;;;5079431;28;20141;-69
2022/01/28 06:24:56;;;;;;;16.40;7.50;;;1.80;99.90;;;;;;5089992;28;20445;-69
2022/01/28 06:27:23;;;;;;;13.43;7.97;;;1.80;99.90;;;;;;5077081;28;20050;-69
2022/01/28 06:29:49;;;;;;;17.25;7.95;;;1.70;99.90;;;;;;5085462;28;20417;-69
2022/01/28 06:32:16;;;;;;;15.18;7.85;;;1.70;99.90;;;;;;5083890;28;20039;-69
2022/01/28 06:34:42;;;;;;;19.48;7.35;;;1.60;99.90;;;;;;5078148;28;20115;-68
2022/01/28 06:37:08;;;;;;;17.00;7.32;;;1.80;99.90;;;;;;5089118;28;20078;-69
2022/01/28 06:39:33;;;;;;;14.32;7.32;;;1.80;99.90;;;;;;5078251;28;20342;-69
2022/01/28 06:41:59;;;;;;;16.02;7.45;;;1.80;99.90;;;;;;5080924;28;20033;-69
2022/01/28 06:44:25;;;;;;;15.80;7.82;;;1.80;99.90;;;;;;5069730;28;20032;-69
2022/01/28 06:46:52;;;;;;;11.68;7.05;;;1.80;99.90;;;;;;5073943;28;20092;-69
2022/01/28 06:49:18;;;;;;;13.48;7.28;;;1.80;99.90;;;;;;5072032;28;20050;-69
2022/01/28 06:51:44;;;;;;;14.50;7.90;;;1.90;99.90;;;;;;5068171;28;20041;-69
2022/01/28 06:54:09;;;;;;;15.70;8.13;;;1.90;99.90;;;;;;5066832;28;20484;-69
2022/01/28 06:56:35;;;;;;;16.80;8.75;;;1.90;99.90;;;;;;5071086;28;20034;-70
2022/01/28 06:59:00;;;;;;;19.50;8.52;;;1.90;99.90;;;;;;5089409;28;20053;-69
2022/01/28 07:01:26;;;;;;;15.85;8.07;;;2.00;99.90;;;;;;5076334;28;20325;-69
2022/01/28 07:03:52;;;;;;;18.52;9.02;;;2.00;99.90;;;;;;5083445;28;20036;-69
2022/01/28 07:06:18;;;;;;;14.68;8.00;;;2.00;99.90;;;;;;5084901;28;20032;-69
2022/01/28 07:08:44;;;;;;;14.80;8.50;;;2.00;99.90;;;;;;5078832;28;20059;-69
2022/01/28 07:11:10;;;;;;;18.52;8.20;;;2.00;99.90;;;;;;5074673;28;20037;-70
2022/01/28 07:13:35;;;;;;;14.75;7.43;;;2.00;99.90;;;;;;5086122;28;20081;-69
2022/01/28 07:16:01;;;;;;;17.42;8.20;;;2.00;99.90;;;;;;5082150;28;20459;-69
2022/01/28 07:18:28;;;;;;;17.60;8.43;;;2.00;99.90;;;;;;5078717;28;20024;-69
2022/01/28 07:20:54;;;;;;;15.80;7.93;;;2.00;99.90;;;;;;5085947;28;20048;-69
2022/01/28 07:23:20;;;;;;;15.55;7.40;;;2.00;99.90;;;;;;5075370;28;20100;-69
2022/01/28 07:25:46;;;;;;;14.95;7.85;;;2.00;99.90;;;;;;5085041;28;20017;-70
2022/01/28 07:28:12;;;;;;;14.43;7.45;;;2.10;99.90;;;;;;5082938;28;20112;-69
2022/01/28 07:30:37;;;;;;;13.63;6.88;;;2.00;99.90;;;;;;5076636;28;20063;-69
2022/01/28 07:33:06;;;;;;;17.27;7.43;;;2.10;99.90;;;;;;5088488;28;20058;-69
2022/01/28 07:35:33;;;;;;;16.08;7.72;;;2.10;99.90;;;;;;5074427;28;20107;-69
2022/01/28 07:37:58;;;;;;;13.88;7.45;;;2.10;99.90;;;;;;5080025;28;20035;-70
2022/01/28 07:40:24;;;;;;;14.50;7.40;;;2.10;99.90;;;;;;5077714;28;20032;-70
2022/01/28 07:42:50;;;;;;;18.13;8.10;;;2.10;99.90;;;;;;5066547;28;20052;-69
2022/01/28 07:45:16;;;;;;;14.15;7.57;;;2.10;99.90;;;;;;5084927;28;20468;-69
2022/01/28 07:47:43;;;;;;;12.50;6.85;;;2.10;99.90;;;;;;5076591;28;20032;-69
2022/01/28 07:50:11;;;;;;;14.93;7.13;;;2.10;99.90;;;;;;5080878;28;20029;-71
2022/01/28 07:52:37;;;;;;;15.00;7.22;;;2.10;99.90;;;;;;5076795;28;20028;-69
2022/01/28 07:55:06;;;;;;;13.98;7.32;;;2.20;99.90;;;;;;5062424;28;20230;-69
2022/01/28 07:57:32;;;;;;;13.15;7.72;;;2.30;99.90;;;;;;5076361;28;20456;-69
2022/01/28 07:59:58;;;;;;;13.48;7.70;;;2.40;99.90;;;;;;5082660;28;20039;-69
2022/01/28 08:02:24;;;;;;;12.82;7.25;;;2.50;99.90;;;;;;5079898;28;20036;-69
2022/01/28 08:04:49;;;;;;;14.75;7.22;;;2.60;99.90;;;;;;5060458;28;20085;-69
2022/01/28 08:07:15;;;;;;;15.38;7.40;;;2.60;99.90;;;;;;5085541;28;20052;-69
2022/01/28 08:09:41;;;;;;;14.60;6.85;;;2.70;99.90;;;;;;5076431;28;20081;-69
2022/01/28 08:12:07;;;;;;;13.73;7.68;;;2.80;99.90;;;;;;5080448;28;20028;-67
2022/01/28 08:14:33;;;;;;;14.20;7.40;;;2.80;99.90;;;;;;5083805;28;20028;-68
2022/01/28 08:16:59;;;;;;;16.17;7.03;;;2.80;99.90;;;;;;5073647;28;20043;-69
2022/01/28 08:19:25;;;;;;;13.23;6.22;;;2.90;99.90;;;;;;5084758;28;20024;-72
2022/01/28 08:21:51;;;;;;;11.52;6.15;;;2.90;99.90;;;;;;5075503;28;20092;-68
2022/01/28 08:24:17;;;;;;;11.95;6.18;;;2.90;99.90;;;;;;5075154;28;20107;-69
2022/01/28 08:26:42;;;;;;;15.60;6.90;;;3.00;99.90;;;;;;5084899;28;20135;-68
2022/01/28 08:29:08;;;;;;;11.30;6.45;;;3.00;99.90;;;;;;5086200;28;20104;-73
2022/01/28 08:31:34;;;;;;;15.60;6.15;;;3.10;99.90;;;;;;5072478;28;20074;-73
2022/01/28 08:34:01;;;;;;;12.77;5.35;;;3.10;99.90;;;;;;5069297;28;20051;-79
2022/01/28 08:36:27;;;;;;;15.43;6.47;;;3.20;99.90;;;;;;5077327;28;20016;-79
2022/01/28 08:38:54;;;;;;;10.60;5.28;;;3.30;99.90;;;;;;5059046;28;20032;-76
2022/01/28 08:41:24;;;;;;;12.25;5.55;;;3.30;99.90;;;;;;5070819;28;20082;-73
2022/01/28 08:43:51;;;;;;;9.85;5.63;;;3.40;99.90;;;;;;5065928;28;20028;-76
2022/01/28 08:46:17;;;;;;;11.15;5.53;;;3.40;99.90;;;;;;5078743;28;20327;-70
2022/01/28 08:48:43;;;;;;;13.48;6.32;;;3.50;99.90;;;;;;5085232;28;20024;-78
2022/01/28 08:51:09;;;;;;;10.73;5.75;;;3.60;99.90;;;;;;5073448;28;20043;-70
2022/01/28 08:53:37;;;;;;;9.65;4.85;;;3.60;99.90;;;;;;5084585;28;20024;-70
2022/01/28 08:56:03;;;;;;;12.45;5.40;;;3.70;99.90;;;;;;5077959;28;20024;-72
2022/01/28 08:58:28;;;;;;;16.15;6.47;;;3.80;99.90;;;;;;5087286;28;20095;-72
2022/01/28 09:00:54;;;;;;;12.52;4.85;;;3.80;99.90;;;;;;5073652;28;20116;-71
2022/01/28 09:03:22;;;;;;;9.88;4.80;;;3.80;99.90;;;;;;5086806;28;20261;-72
2022/01/28 09:05:48;;;;;;;12.73;5.43;;;4.00;99.90;;;;;;5079351;28;20028;-73
2022/01/28 09:08:14;;;;;;;10.65;5.53;;;4.10;99.90;;;;;;5082756;28;20046;-77
2022/01/28 09:10:43;;;;;;;12.10;4.93;;;4.10;99.90;;;;;;5088617;28;20081;-67
2022/01/28 09:13:11;;;;;;;13.40;4.85;;;4.10;99.90;;;;;;5074715;28;20024;-72
2022/01/28 09:15:41;;;;;;;11.40;4.75;;;4.10;99.90;;;;;;5083797;28;20028;-73
2022/01/28 09:18:09;;;;;;;11.45;4.88;;;4.20;99.90;;;;;;5079705;28;20107;-73
2022/01/28 09:20:36;;;;;;;12.77;4.68;;;4.20;99.90;;;;;;5069751;28;20025;-74
2022/01/28 09:23:03;;;;;;;11.77;4.47;;;4.30;99.90;;;;;;5087365;28;20151;-75
2022/01/28 09:25:31;;;;;;;7.30;4.20;;;4.40;99.90;;;;;;5074456;28;20586;-75
2022/01/28 09:27:56;;;;;;;10.20;4.10;;;4.50;99.90;;;;;;5079623;28;20092;-76
2022/01/28 09:30:22;;;;;;;9.77;4.25;;;4.50;99.90;;;;;;5081401;28;20056;-76
2022/01/28 09:32:48;;;;;;;9.10;4.47;;;4.50;99.90;;;;;;5087097;28;20046;-74
2022/01/28 09:35:15;;;;;;;10.73;4.30;;;4.50;99.90;;;;;;5065464;28;20020;-73
2022/01/28 09:37:41;;;;;;;10.70;4.53;;;4.50;99.90;;;;;;5085242;28;20043;-76
2022/01/28 09:40:08;;;;;;;13.73;5.00;;;4.50;99.90;;;;;;5084991;28;20133;-77
2022/01/28 09:42:37;;;;;;;13.57;3.72;;;4.50;99.90;;;;;;5069693;28;20033;-76
2022/01/28 09:45:04;;;;;;;8.53;3.93;;;4.60;99.90;;;;;;5069679;28;20035;-77
2022/01/28 09:47:31;;;;;;;11.18;4.18;;;4.70;99.90;;;;;;5076965;28;20266;-76
2022/01/28 09:49:58;;;;;;;8.95;3.92;;;4.90;99.90;;;;;;5084330;28;20527;-72
2022/01/28 09:52:23;;;;;;;7.88;3.50;;;5.10;99.90;;;;;;5086629;28;20028;-75
2022/01/28 09:54:49;;;;;;;7.78;3.25;;;;;;;;;;5073079;28;20097;-74
2022/01/28 09:57:20;;;;;;;10.57;2.83;;;5.40;99.90;;;;;;5083395;28;20144;-73
2022/01/28 09:59:46;;;;;;;9.68;3.05;;;5.50;99.90;;;;;;5082403;28;20020;-73
2022/01/28 10:02:12;;;;;;;9.38;2.75;;;5.60;99.90;;;;;;5083173;28;20049;-73
2022/01/28 10:04:38;;;;;;;10.20;3.17;;;5.70;99.90;;;;;;5078751;28;20101;-73
2022/01/28 10:07:13;;;;;;;7.68;3.13;;;5.80;99.90;;;;;;5076662;28;20029;-71
2022/01/28 10:09:56;;;;;;;9.27;2.75;;;;;;;;;;5077928;28;20020;-73
2022/01/28 10:12:41;;;;;;;22.30;4.03;;;;;;;;;;5083397;28;20065;-72
2022/01/28 10:15:17;;;;;;;12.43;2.50;;;;;;;;;;5077321;28;20529;-80
2022/01/28 10:17:53;;;;;;;12.00;2.63;;;;;;;;;;5085925;28;20024;-77
2022/01/28 10:20:20;;;;;;;7.40;2.33;;;;;;;;;;5082955;28;20043;-76
2022/01/28 10:22:53;;;;;;;10.35;2.05;;;;;;;;;;5076514;28;20024;-74
2022/01/28 10:25:23;;;;;;;7.65;1.90;;;;;;;;;;5068049;28;20024;-76
2022/01/28 10:28:08;;;;;;;10.90;2.78;;;;;;;;;;5080837;28;20111;-78
2022/01/28 10:30:38;;;;;;;11.23;1.80;;;;;;;;;;5086813;28;20111;-73
2022/01/28 10:33:19;;;;;;;12.55;2.42;;;6.60;99.90;;;;;;5074266;28;20033;-69
2022/01/28 10:35:53;;;;;;;6.38;1.92;;;6.50;99.90;;;;;;5081369;28;20032;-74
2022/01/28 10:38:28;;;;;;;5.93;2.03;;;6.40;99.90;;;;;;5087621;28;20461;-69
2022/01/28 10:41:13;;;;;;;8.30;2.33;;;6.30;99.90;;;;;;5076544;28;20490;-69
2022/01/28 10:43:53;;;;;;;6.38;1.95;;;6.20;99.90;;;;;;5088639;28;20028;-70
2022/01/28 10:46:26;;;;;;;7.82;2.05;;;6.10;99.90;;;;;;5084393;28;20036;-70
2022/01/28 10:48:56;;;;;;;5.68;2.40;;;6.10;99.90;;;;;;5075977;28;20471;-69
2022/01/28 10:51:36;;;;;;;10.70;2.28;;;6.20;99.90;;;;;;5083052;28;20056;-70
2022/01/28 10:54:10;;;;;;;7.60;2.08;;;6.20;99.90;;;;;;5082958;28;20046;-69
2022/01/28 10:56:49;;;;;;;12.10;2.70;;;6.30;99.90;;;;;;5085862;28;20487;-69
2022/01/28 10:59:17;;;;;;;5.18;1.85;;;6.30;99.90;;;;;;5060558;28;20038;-69
2022/01/28 11:01:43;;;;;;;11.55;2.50;;;6.60;99.90;;;;;;5068816;28;20051;-69
2022/01/28 11:04:11;;;;;;;7.53;2.40;;;6.80;99.90;;;;;;5081779;28;20099;-71
2022/01/28 11:06:37;;;;;;;8.38;1.90;;;6.90;99.90;;;;;;5070779;28;20028;-70
2022/01/28 11:09:03;;;;;;;4.25;1.67;;;7.00;99.90;;;;;;5088207;28;20075;-69
2022/01/28 11:11:29;;;;;;;12.40;2.05;;;6.90;99.90;;;;;;5078100;28;20056;-71
2022/01/28 11:13:56;;;;;;;7.18;1.90;;;6.90;99.90;;;;;;5087330;28;20040;-71
2022/01/28 11:16:21;;;;;;;8.50;1.90;;;6.90;99.90;;;;;;5080171;28;20094;-70
2022/01/28 11:18:48;;;;;;;7.57;2.10;;;6.80;99.90;;;;;;5084032;28;20516;-69
2022/01/28 11:21:17;;;;;;;5.00;1.45;;;6.80;99.40;;;;;;5066748;28;20036;-73
2022/01/28 11:24:13;;;;;;;4.85;1.50;;;6.80;99.50;;;;;;5069448;28;20226;-73
2022/01/28 11:27:03;;;;;;;7.97;1.70;;;6.70;98.40;;;;;;5041131;28;20115;-70
2022/01/28 11:29:28;;;;;;;13.32;2.47;;;6.50;99.90;;;;;;5066958;28;20048;-75
2022/01/28 11:31:55;;;;;;;11.80;2.30;;;6.40;99.90;;;;;;5081823;28;20040;-83
2022/01/28 11:34:30;;;;;;;14.63;2.28;;;6.50;99.90;;;;;;5079673;28;20070;-79
2022/01/28 11:36:58;;;;;;;9.70;1.60;;;6.60;99.90;;;;;;5090510;28;20032;-85
2022/01/28 11:39:39;;;;;;;8.65;2.08;;;6.80;99.70;;;;;;5078987;28;20020;-79
2022/01/28 11:42:25;;;;;;;6.05;1.60;;;6.90;99.70;;;;;;5075378;28;20021;-76
2022/01/28 11:44:51;;;;;;;6.32;1.40;;;6.80;97.40;;;;;;5079752;28;20072;-74
2022/01/28 11:47:30;;;;;;;7.65;2.42;;;6.80;96.40;;;;;;5088560;28;20021;-73
2022/01/28 11:49:59;;;;;;;8.95;1.52;;;6.70;98.30;;;;;;5076047;28;20055;-75
2022/01/28 11:52:30;;;;;;;7.70;1.73;;;6.60;98.20;;;;;;5084950;28;20028;-76
2022/01/28 11:55:16;;;;;;;6.60;1.40;;;6.70;98.40;;;;;;5071272;28;20374;-77
2022/01/28 11:58:03;;;;;;;4.28;1.80;;;6.80;97.30;;;;;;5080162;28;20090;-81
2022/01/28 12:00:31;;;;;;;6.15;1.88;;;6.80;97.50;;;;;;5074446;28;20025;-80
2022/01/28 12:02:57;;;;;;;8.10;1.80;;;6.70;98.60;;;;;;5087519;28;20054;-83
2022/01/28 12:05:45;;;;;;;8.30;2.15;;;6.60;98.90;;;;;;5077215;28;20024;-78
2022/01/28 12:08:12;;;;;;;5.85;1.92;;;6.50;99.20;;;;;;5080115;28;20028;-79
2022/01/28 12:10:43;;;;;;;8.45;2.20;;;6.30;99.90;;;;;;5072622;28;20031;-78
2022/01/28 12:13:13;;;;;;;6.57;1.65;;;6.20;99.90;;;;;;5081176;28;20032;-79
2022/01/28 12:16:02;;;;;;;10.68;1.67;;;6.10;99.90;;;;;;5084169;28;20021;-80
2022/01/28 12:18:46;;;;;;;7.05;1.90;;;6.00;99.90;;;;;;5056561;28;20079;-81
2022/01/28 12:21:17;;;;;;;11.07;2.15;;;5.90;99.90;;;;;;5071421;28;20464;-78
2022/01/28 12:23:44;;;;;;;8.38;2.60;;;5.80;99.90;;;;;;5082536;28;20017;-80
2022/01/28 12:26:13;;;;;;;7.82;1.75;;;5.70;99.90;;;;;;5082789;28;20103;-79
2022/01/28 12:28:44;;;;;;;10.20;2.22;;;5.80;99.90;;;;;;5075363;28;20048;-82
2022/01/28 12:31:12;;;;;;;8.90;2.22;;;5.90;99.90;;;;;;5088165;28;20039;-81
2022/01/28 12:33:41;;;;;;;11.50;3.50;;;6.10;99.90;;;;;;5078201;28;20020;-79
2022/01/28 12:36:10;;;;;;;7.47;2.38;;;6.30;99.90;;;;;;5075466;28;20384;-74
2022/01/28 12:38:43;;;;;;;8.05;2.25;;;6.40;99.90;;;;;;5075729;28;20393;-75
2022/01/28 12:41:14;;;;;;;7.10;2.55;;;6.60;99.90;;;;;;5058974;28;20084;-74
2022/01/28 12:43:40;;;;;;;11.43;2.35;;;6.80;97.90;;;;;;5079496;28;20065;-75
2022/01/28 12:46:10;;;;;;;8.05;2.40;;;6.70;98.20;;;;;;5080510;28;20477;-75
2022/01/28 12:48:36;;;;;;;;;;;6.60;98.50;;;;;;5086695;28;20028;-75
2022/01/28 12:51:03;;;;;;;8.93;3.35;;;6.60;98.70;;;;;;5073704;28;19912;-75
2022/01/28 12:53:29;;;;;;;7.22;3.05;;;6.60;99.30;;;;;;5062484;28;20025;-75
2022/01/28 12:55:56;;;;;;;13.68;3.20;;;6.60;99.40;;;;;;5085613;28;20110;-75
2022/01/28 12:58:46;;;;;;;8.05;3.00;;;6.60;99.70;;;;;;5079626;28;20041;-77
2022/01/28 13:01:17;;;;;;;7.53;2.90;;;6.60;99.90;;;;;;5088163;28;20480;-76
2022/01/28 13:03:51;;;;;;;7.72;2.92;;;6.60;99.90;;;;;;5080368;28;20028;-76
2022/01/28 13:09:21;;;;;;;9.02;3.85;;;6.60;99.90;;;;;;5089310;28;20032;-74
2022/01/28 13:11:48;;;;;;;10.35;3.88;;;6.60;99.90;;;;;;5068225;28;20028;-75
2022/01/28 13:14:19;;;;;;;12.95;3.28;;;6.60;99.90;;;;;;5078366;28;20033;-76
2022/01/28 13:16:47;;;;;;;14.85;4.13;;;6.70;99.90;;;;;;5071235;28;20082;-75
2022/01/28 13:19:14;;;;;;;15.23;4.18;;;6.80;99.90;;;;;;5059449;28;20043;-75
2022/01/28 13:21:42;;;;;;;7.90;3.17;;;6.90;99.90;;;;;;5071931;28;20029;-75
2022/01/28 13:24:18;;;;;;;6.78;3.30;;;7.00;99.90;;;;;;5072614;28;20025;-76
2022/01/28 13:27:07;;;;;;;6.22;3.42;;;6.90;99.90;;;;;;5090282;28;20028;-75
2022/01/28 13:29:52;;;;;;;13.50;4.50;;;6.90;99.90;;;;;;5067199;28;20048;-76
2022/01/28 13:32:28;;;;;;;7.30;4.18;;;6.80;99.90;;;;;;5092529;28;20028;-74
2022/01/28 13:34:59;;;;;;;9.48;4.78;;;6.70;99.90;;;;;;5083001;28;20029;-75
2022/01/28 13:37:40;;;;;;;11.77;5.00;;;6.60;99.90;;;;;;5083669;28;20056;-75
2022/01/28 13:40:17;;;;;;;10.52;5.00;;;6.40;99.90;;;;;;5076403;28;20028;-75
2022/01/28 13:43:06;;;;;;;8.80;4.68;;;6.30;99.90;;;;;;5074331;28;20060;-74
2022/01/28 13:45:57;;;;;;;12.43;5.18;;;6.30;99.90;;;;;;5054317;28;20060;-74
2022/01/28 13:48:32;;;;;;;11.43;4.60;;;6.20;99.90;;;;;;5081213;28;20201;-74
2022/01/28 13:51:04;;;;;;;10.93;4.63;;;6.10;99.90;;;;;;5076287;28;20104;-73
2022/01/28 13:56:02;;;;;;;11.23;5.28;;;6.00;99.90;;;;;;5088848;28;20032;-74
2022/01/28 13:58:29;;;;;;;11.82;5.18;;;5.90;99.90;;;;;;5086901;28;20499;-77
2022/01/28 14:00:56;;;;;;;10.48;5.43;;;5.90;99.90;;;;;;5081631;28;20112;-73
2022/01/28 14:03:23;;;;;;;11.30;5.07;;;5.90;99.90;;;;;;5083369;28;20027;-72
2022/01/28 14:05:57;;;;;;;11.40;5.43;;;5.80;99.90;;;;;;5082273;28;20492;-76
2022/01/28 14:08:49;;;;;;;17.17;5.88;;;5.80;99.90;;;;;;5080607;28;20491;-71
2022/01/28 14:11:36;;;;;;;11.73;5.18;;;5.80;99.90;;;;;;5089194;28;20024;-71
2022/01/28 14:14:34;;;;;;;11.18;5.43;;;5.90;99.90;;;;;;5081531;28;20029;-76
2022/01/28 14:16:57;;;;;;;15.30;6.03;;;5.90;99.90;;;;;;5070638;28;20037;-72
2022/01/28 14:19:24;;;;;;;13.45;5.28;;;5.80;99.90;;;;;;5087887;28;20024;-73
2022/01/28 14:21:51;;;;;;;10.52;5.45;;;5.80;99.90;;;;;;5084720;28;20025;-73
2022/01/28 14:24:26;;;;;;;11.50;5.90;;;5.80;99.90;;;;;;5083787;28;20081;-73
2022/01/28 14:26:59;;;;;;;14.27;5.80;;;5.80;99.90;;;;;;5090188;28;20032;-73
2022/01/28 14:31:54;;;;;;;10.25;5.00;;;5.80;99.90;;;;;;5081074;28;20047;-73
2022/01/28 14:34:21;;;;;;;16.35;6.28;;;5.90;99.90;;;;;;5086936;28;20036;-75
2022/01/28 14:36:47;;;;;;;14.73;4.63;;;5.80;99.90;;;;;;5087626;28;20388;-75
2022/01/28 14:39:16;;;;;;;9.50;5.15;;;5.80;99.90;;;;;;5077471;28;20024;-74
2022/01/28 14:41:43;;;;;;;11.27;4.40;;;5.90;99.90;;;;;;5082993;28;20043;-74